sensor_id;sensor_type;location;lat;lon;timestamp;temperature;humidity
50989;DHT22;37008;52.210;21.112;2023-01-16T00:01:21;4.10;99.90
50989;DHT22;37008;52.210;21.112;2023-01-16T00:03:47;4.20;99.90
50989;DHT22;37008;52.210;21.112;2023-01-16T00:06:12;4.20;99.90
50989;DHT22;37008;52.210;21.112;2023-01-16T00:08:38;4.10;99.90
50989;DHT22;37008;52.210;21.112;2023-01-16T00:11:04;4.10;99.90
50989;DHT22;37008;52.210;21.112;2023-01-16T00:13:29;4.10;99.90
50989;DHT22;37008;52.210;21.112;2023-01-16T00:15:55;4.10;99.90
50989;DHT22;37008;52.210;21.112;2023-01-16T00:18:21;4.00;99.90
50989;DHT22;37008;52.210;21.112;2023-01-16T00:20:47;4.00;99.90
50989;DHT22;37008;52.210;21.112;2023-01-16T00:23:14;4.00;99.90
50989;DHT22;37008;52.210;21.112;2023-01-16T00:25:43;4.00;99.90
50989;DHT22;37008;52.210;21.112;2023-01-16T00:28:11;3.90;99.90
50989;DHT22;37008;52.210;21.112;2023-01-16T00:30:36;3.90;99.90
50989;DHT22;37008;52.210;21.112;2023-01-16T00:33:03;3.80;99.90
50989;DHT22;37008;52.210;21.112;2023-01-16T00:35:30;3.70;99.90
50989;DHT22;37008;52.210;21.112;2023-01-16T00:37:55;3.60;99.90
50989;DHT22;37008;52.210;21.112;2023-01-16T00:40:22;3.60;99.90
50989;DHT22;37008;52.210;21.112;2023-01-16T00:42:48;3.50;99.90
50989;DHT22;37008;52.210;21.112;2023-01-16T00:45:13;3.50;99.90
50989;DHT22;37008;52.210;21.112;2023-01-16T00:47:39;3.40;99.90
50989;DHT22;37008;52.210;21.112;2023-01-16T00:50:05;3.30;99.90
50989;DHT22;37008;52.210;21.112;2023-01-16T00:52:31;3.30;99.90
50989;DHT22;37008;52.210;21.112;2023-01-16T00:54:57;3.30;99.90
50989;DHT22;37008;52.210;21.112;2023-01-16T00:57:22;3.30;99.90
50989;DHT22;37008;52.210;21.112;2023-01-16T00:59:48;3.30;99.90
50989;DHT22;37008;52.210;21.112;2023-01-16T01:02:13;3.20;99.90
50989;DHT22;37008;52.210;21.112;2023-01-16T01:04:39;3.20;99.90
50989;DHT22;37008;52.210;21.112;2023-01-16T01:07:05;3.20;99.90
50989;DHT22;37008;52.210;21.112;2023-01-16T01:09:31;3.10;99.90
50989;DHT22;37008;52.210;21.112;2023-01-16T01:11:57;3.10;99.90
50989;DHT22;37008;52.210;21.112;2023-01-16T01:14:23;3.00;99.90
50989;DHT22;37008;52.210;21.112;2023-01-16T01:16:49;3.00;99.90
50989;DHT22;37008;52.210;21.112;2023-01-16T01:19:14;2.90;99.90
50989;DHT22;37008;52.210;21.112;2023-01-16T01:21:40;2.90;99.90
50989;DHT22;37008;52.210;21.112;2023-01-16T01:24:06;2.90;99.90
50989;DHT22;37008;52.210;21.112;2023-01-16T01:26:32;2.90;99.90
50989;DHT22;37008;52.210;21.112;2023-01-16T01:28:58;2.90;99.90
50989;DHT22;37008;52.210;21.112;2023-01-16T01:31:23;2.80;99.90
50989;DHT22;37008;52.210;21.112;2023-01-16T01:33:49;2.80;99.90
50989;DHT22;37008;52.210;21.112;2023-01-16T01:36:14;2.80;99.90
50989;DHT22;37008;52.210;21.112;2023-01-16T01:38:40;2.70;99.90
50989;DHT22;37008;52.210;21.112;2023-01-16T01:41:06;2.80;99.90
50989;DHT22;37008;52.210;21.112;2023-01-16T01:43:47;2.70;99.90
50989;DHT22;37008;52.210;21.112;2023-01-16T01:48:53;2.70;99.90
50989;DHT22;37008;52.210;21.112;2023-01-16T01:51:28;2.70;99.90
50989;DHT22;37008;52.210;21.112;2023-01-16T01:54:01;2.70;99.90
50989;DHT22;37008;52.210;21.112;2023-01-16T01:56:37;2.60;99.90
50989;DHT22;37008;52.210;21.112;2023-01-16T01:59:11;2.60;99.90
50989;DHT22;37008;52.210;21.112;2023-01-16T02:01:38;2.60;99.90
50989;DHT22;37008;52.210;21.112;2023-01-16T02:04:09;2.50;99.90
50989;DHT22;37008;52.210;21.112;2023-01-16T02:06:43;2.50;99.90
50989;DHT22;37008;52.210;21.112;2023-01-16T02:09:09;2.50;99.90
50989;DHT22;37008;52.210;21.112;2023-01-16T02:11:41;2.50;99.90
50989;DHT22;37008;52.210;21.112;2023-01-16T02:14:09;2.50;99.90
50989;DHT22;37008;52.210;21.112;2023-01-16T02:16:37;2.40;99.90
50989;DHT22;37008;52.210;21.112;2023-01-16T02:19:33;2.40;99.90
50989;DHT22;37008;52.210;21.112;2023-01-16T02:22:19;2.30;99.90
50989;DHT22;37008;52.210;21.112;2023-01-16T02:25:17;2.20;99.90
50989;DHT22;37008;52.210;21.112;2023-01-16T02:38:48;1.80;99.90
50989;DHT22;37008;52.210;21.112;2023-01-16T02:47:09;1.50;99.90
50989;DHT22;37008;52.210;21.112;2023-01-16T02:49:42;1.40;99.90
50989;DHT22;37008;52.210;21.112;2023-01-16T02:52:28;1.50;99.90
50989;DHT22;37008;52.210;21.112;2023-01-16T02:55:08;1.40;99.90
50989;DHT22;37008;52.210;21.112;2023-01-16T02:57:41;1.40;99.90
50989;DHT22;37008;52.210;21.112;2023-01-16T03:00:08;1.30;99.90
50989;DHT22;37008;52.210;21.112;2023-01-16T03:02:35;1.30;99.90
50989;DHT22;37008;52.210;21.112;2023-01-16T03:05:00;1.30;99.90
50989;DHT22;37008;52.210;21.112;2023-01-16T03:07:48;1.20;99.90
50989;DHT22;37008;52.210;21.112;2023-01-16T03:16:14;1.20;99.90
50989;DHT22;37008;52.210;21.112;2023-01-16T03:19:26;1.30;99.90
50989;DHT22;37008;52.210;21.112;2023-01-16T03:22:09;1.20;99.90
50989;DHT22;37008;52.210;21.112;2023-01-16T03:30:15;1.20;99.90
50989;DHT22;37008;52.210;21.112;2023-01-16T03:32:50;1.20;99.90
50989;DHT22;37008;52.210;21.112;2023-01-16T03:35:22;1.20;99.90
50989;DHT22;37008;52.210;21.112;2023-01-16T03:37:54;1.20;99.90
50989;DHT22;37008;52.210;21.112;2023-01-16T03:40:24;1.10;99.90
50989;DHT22;37008;52.210;21.112;2023-01-16T03:43:08;1.20;99.90
50989;DHT22;37008;52.210;21.112;2023-01-16T03:48:15;1.10;99.90
50989;DHT22;37008;52.210;21.112;2023-01-16T03:50:47;1.10;99.90
50989;DHT22;37008;52.210;21.112;2023-01-16T03:53:16;1.10;99.90
50989;DHT22;37008;52.210;21.112;2023-01-16T03:56:11;1.10;99.90
50989;DHT22;37008;52.210;21.112;2023-01-16T03:58:39;1.10;99.90
50989;DHT22;37008;52.210;21.112;2023-01-16T04:01:26;1.10;99.90
50989;DHT22;37008;52.210;21.112;2023-01-16T04:04:19;1.10;99.90
50989;DHT22;37008;52.210;21.112;2023-01-16T04:06:55;1.20;99.90
50989;DHT22;37008;52.210;21.112;2023-01-16T04:09:30;1.20;99.90
50989;DHT22;37008;52.210;21.112;2023-01-16T04:11:59;1.20;99.90
50989;DHT22;37008;52.210;21.112;2023-01-16T04:14:26;1.20;99.90
50989;DHT22;37008;52.210;21.112;2023-01-16T04:16:53;1.20;99.90
50989;DHT22;37008;52.210;21.112;2023-01-16T04:19:19;1.20;99.90
50989;DHT22;37008;52.210;21.112;2023-01-16T04:21:46;1.30;99.90
50989;DHT22;37008;52.210;21.112;2023-01-16T04:24:13;1.30;99.90
50989;DHT22;37008;52.210;21.112;2023-01-16T04:26:39;1.20;99.90
50989;DHT22;37008;52.210;21.112;2023-01-16T04:29:05;1.20;99.90
50989;DHT22;37008;52.210;21.112;2023-01-16T04:31:31;1.20;99.90
50989;DHT22;37008;52.210;21.112;2023-01-16T04:33:56;1.20;99.90
50989;DHT22;37008;52.210;21.112;2023-01-16T04:36:22;1.20;99.90
50989;DHT22;37008;52.210;21.112;2023-01-16T04:38:48;1.20;99.90
50989;DHT22;37008;52.210;21.112;2023-01-16T04:41:13;1.20;99.90
50989;DHT22;37008;52.210;21.112;2023-01-16T04:43:59;1.20;99.90
50989;DHT22;37008;52.210;21.112;2023-01-16T04:46:25;1.20;99.90
50989;DHT22;37008;52.210;21.112;2023-01-16T04:48:50;1.20;99.90
50989;DHT22;37008;52.210;21.112;2023-01-16T04:51:16;1.20;99.90
50989;DHT22;37008;52.210;21.112;2023-01-16T04:53:41;1.20;99.90
50989;DHT22;37008;52.210;21.112;2023-01-16T04:56:07;1.20;99.90
50989;DHT22;37008;52.210;21.112;2023-01-16T04:58:33;1.20;99.90
50989;DHT22;37008;52.210;21.112;2023-01-16T05:00:58;1.10;99.90
50989;DHT22;37008;52.210;21.112;2023-01-16T05:03:24;1.10;99.90
50989;DHT22;37008;52.210;21.112;2023-01-16T05:05:49;1.20;99.90
50989;DHT22;37008;52.210;21.112;2023-01-16T05:08:15;1.10;99.90
50989;DHT22;37008;52.210;21.112;2023-01-16T05:10:44;1.20;99.90
50989;DHT22;37008;52.210;21.112;2023-01-16T05:13:09;1.20;99.90
50989;DHT22;37008;52.210;21.112;2023-01-16T05:15:35;1.20;99.90
50989;DHT22;37008;52.210;21.112;2023-01-16T05:18:00;1.20;99.90
50989;DHT22;37008;52.210;21.112;2023-01-16T05:20:26;1.10;99.90
50989;DHT22;37008;52.210;21.112;2023-01-16T05:22:52;1.20;99.90
50989;DHT22;37008;52.210;21.112;2023-01-16T05:25:17;1.10;99.90
50989;DHT22;37008;52.210;21.112;2023-01-16T05:27:43;1.10;99.90
50989;DHT22;37008;52.210;21.112;2023-01-16T05:30:09;1.10;99.90
50989;DHT22;37008;52.210;21.112;2023-01-16T05:32:35;1.10;99.90
50989;DHT22;37008;52.210;21.112;2023-01-16T05:35:00;1.10;99.90
50989;DHT22;37008;52.210;21.112;2023-01-16T05:37:27;1.10;99.90
50989;DHT22;37008;52.210;21.112;2023-01-16T05:39:53;1.10;99.90
50989;DHT22;37008;52.210;21.112;2023-01-16T05:42:22;1.10;99.90
50989;DHT22;37008;52.210;21.112;2023-01-16T05:44:51;1.10;99.90
50989;DHT22;37008;52.210;21.112;2023-01-16T05:47:17;1.00;99.90
50989;DHT22;37008;52.210;21.112;2023-01-16T05:49:43;1.10;99.90
50989;DHT22;37008;52.210;21.112;2023-01-16T05:52:10;1.00;99.90
50989;DHT22;37008;52.210;21.112;2023-01-16T05:54:36;1.00;99.90
50989;DHT22;37008;52.210;21.112;2023-01-16T05:57:01;1.00;99.90
50989;DHT22;37008;52.210;21.112;2023-01-16T05:59:27;1.00;99.90
50989;DHT22;37008;52.210;21.112;2023-01-16T06:01:52;1.00;99.90
50989;DHT22;37008;52.210;21.112;2023-01-16T06:04:18;1.00;99.90
50989;DHT22;37008;52.210;21.112;2023-01-16T06:06:47;1.00;99.90
50989;DHT22;37008;52.210;21.112;2023-01-16T06:09:13;1.00;99.90
50989;DHT22;37008;52.210;21.112;2023-01-16T06:11:38;1.00;99.90
50989;DHT22;37008;52.210;21.112;2023-01-16T06:14:04;0.90;99.90
50989;DHT22;37008;52.210;21.112;2023-01-16T06:16:34;0.90;99.90
50989;DHT22;37008;52.210;21.112;2023-01-16T06:19:00;0.90;99.90
50989;DHT22;37008;52.210;21.112;2023-01-16T06:21:26;0.90;99.90
50989;DHT22;37008;52.210;21.112;2023-01-16T06:23:52;0.90;99.90
50989;DHT22;37008;52.210;21.112;2023-01-16T06:26:17;0.90;99.90
50989;DHT22;37008;52.210;21.112;2023-01-16T06:28:45;0.90;99.90
50989;DHT22;37008;52.210;21.112;2023-01-16T06:31:10;0.90;99.90
50989;DHT22;37008;52.210;21.112;2023-01-16T06:33:36;0.90;99.90
50989;DHT22;37008;52.210;21.112;2023-01-16T06:36:02;0.90;99.90
50989;DHT22;37008;52.210;21.112;2023-01-16T06:38:27;0.90;99.90
50989;DHT22;37008;52.210;21.112;2023-01-16T06:40:53;0.90;99.90
50989;DHT22;37008;52.210;21.112;2023-01-16T06:43:25;0.90;99.90
50989;DHT22;37008;52.210;21.112;2023-01-16T06:45:52;0.90;99.90
50989;DHT22;37008;52.210;21.112;2023-01-16T06:48:17;0.90;99.90
50989;DHT22;37008;52.210;21.112;2023-01-16T06:50:43;0.90;99.90
50989;DHT22;37008;52.210;21.112;2023-01-16T06:53:09;0.90;99.90
50989;DHT22;37008;52.210;21.112;2023-01-16T06:55:35;0.90;99.90
50989;DHT22;37008;52.210;21.112;2023-01-16T06:58:01;1.00;99.90
50989;DHT22;37008;52.210;21.112;2023-01-16T07:00:26;1.00;99.90
50989;DHT22;37008;52.210;21.112;2023-01-16T07:02:53;1.00;99.90
50989;DHT22;37008;52.210;21.112;2023-01-16T07:05:23;1.00;99.90
50989;DHT22;37008;52.210;21.112;2023-01-16T07:07:50;1.00;99.90
50989;DHT22;37008;52.210;21.112;2023-01-16T07:10:16;1.10;99.90
50989;DHT22;37008;52.210;21.112;2023-01-16T07:12:42;1.10;99.90
50989;DHT22;37008;52.210;21.112;2023-01-16T07:15:09;1.10;99.90
50989;DHT22;37008;52.210;21.112;2023-01-16T07:17:53;1.10;99.90
50989;DHT22;37008;52.210;21.112;2023-01-16T07:20:38;1.10;99.90
50989;DHT22;37008;52.210;21.112;2023-01-16T07:23:27;1.10;99.90
50989;DHT22;37008;52.210;21.112;2023-01-16T07:25:56;1.10;99.90
50989;DHT22;37008;52.210;21.112;2023-01-16T07:28:24;1.10;99.90
50989;DHT22;37008;52.210;21.112;2023-01-16T07:30:50;1.20;99.90
50989;DHT22;37008;52.210;21.112;2023-01-16T07:33:16;1.20;99.90
50989;DHT22;37008;52.210;21.112;2023-01-16T07:35:42;1.20;99.90
50989;DHT22;37008;52.210;21.112;2023-01-16T07:38:08;1.20;99.90
50989;DHT22;37008;52.210;21.112;2023-01-16T07:40:34;1.20;99.90
50989;DHT22;37008;52.210;21.112;2023-01-16T07:43:00;1.20;99.90
50989;DHT22;37008;52.210;21.112;2023-01-16T07:45:25;1.20;99.90
50989;DHT22;37008;52.210;21.112;2023-01-16T07:47:51;1.30;99.90
50989;DHT22;37008;52.210;21.112;2023-01-16T07:50:16;1.30;99.90
50989;DHT22;37008;52.210;21.112;2023-01-16T07:52:43;1.40;99.90
50989;DHT22;37008;52.210;21.112;2023-01-16T07:55:09;1.40;99.90
50989;DHT22;37008;52.210;21.112;2023-01-16T07:57:36;1.50;99.90
50989;DHT22;37008;52.210;21.112;2023-01-16T08:00:03;1.50;99.90
50989;DHT22;37008;52.210;21.112;2023-01-16T08:02:29;1.60;99.90
50989;DHT22;37008;52.210;21.112;2023-01-16T08:04:55;1.60;99.90
50989;DHT22;37008;52.210;21.112;2023-01-16T08:07:21;1.70;99.90
50989;DHT22;37008;52.210;21.112;2023-01-16T08:09:46;1.70;99.90
50989;DHT22;37008;52.210;21.112;2023-01-16T08:12:12;1.80;99.90
50989;DHT22;37008;52.210;21.112;2023-01-16T08:14:37;1.80;99.90
50989;DHT22;37008;52.210;21.112;2023-01-16T08:17:04;1.80;99.90
50989;DHT22;37008;52.210;21.112;2023-01-16T08:19:30;1.90;99.90
50989;DHT22;37008;52.210;21.112;2023-01-16T08:21:56;1.90;99.90
50989;DHT22;37008;52.210;21.112;2023-01-16T08:24:21;1.90;99.90
50989;DHT22;37008;52.210;21.112;2023-01-16T08:26:49;2.00;99.90
50989;DHT22;37008;52.210;21.112;2023-01-16T08:29:14;2.00;99.90
50989;DHT22;37008;52.210;21.112;2023-01-16T08:31:40;2.00;99.90
50989;DHT22;37008;52.210;21.112;2023-01-16T08:34:06;2.10;99.90
50989;DHT22;37008;52.210;21.112;2023-01-16T08:36:31;2.10;99.90
50989;DHT22;37008;52.210;21.112;2023-01-16T08:38:57;2.20;99.90
50989;DHT22;37008;52.210;21.112;2023-01-16T08:41:23;2.20;99.90
50989;DHT22;37008;52.210;21.112;2023-01-16T08:44:07;2.30;99.90
50989;DHT22;37008;52.210;21.112;2023-01-16T08:47:18;2.30;99.90
50989;DHT22;37008;52.210;21.112;2023-01-16T08:50:04;2.40;99.90
50989;DHT22;37008;52.210;21.112;2023-01-16T08:52:48;2.40;99.90
50989;DHT22;37008;52.210;21.112;2023-01-16T08:55:14;2.50;99.90
50989;DHT22;37008;52.210;21.112;2023-01-16T08:57:39;2.60;99.90
50989;DHT22;37008;52.210;21.112;2023-01-16T09:00:06;2.70;99.90
50989;DHT22;37008;52.210;21.112;2023-01-16T09:02:32;2.70;99.90
50989;DHT22;37008;52.210;21.112;2023-01-16T09:05:01;2.80;99.90
50989;DHT22;37008;52.210;21.112;2023-01-16T09:07:27;2.90;99.90
50989;DHT22;37008;52.210;21.112;2023-01-16T09:09:54;2.90;99.90
50989;DHT22;37008;52.210;21.112;2023-01-16T09:12:19;3.00;99.90
50989;DHT22;37008;52.210;21.112;2023-01-16T09:15:04;3.00;99.90
50989;DHT22;37008;52.210;21.112;2023-01-16T09:17:30;3.10;99.90
50989;DHT22;37008;52.210;21.112;2023-01-16T09:19:55;3.20;99.90
50989;DHT22;37008;52.210;21.112;2023-01-16T09:22:21;3.30;99.90
50989;DHT22;37008;52.210;21.112;2023-01-16T09:24:47;3.30;99.90
50989;DHT22;37008;52.210;21.112;2023-01-16T09:27:13;3.40;99.90
50989;DHT22;37008;52.210;21.112;2023-01-16T09:29:39;3.40;99.90
50989;DHT22;37008;52.210;21.112;2023-01-16T09:32:06;3.50;99.90
50989;DHT22;37008;52.210;21.112;2023-01-16T09:34:36;3.50;99.90
50989;DHT22;37008;52.210;21.112;2023-01-16T09:37:02;3.60;99.90
50989;DHT22;37008;52.210;21.112;2023-01-16T09:39:29;3.60;99.90
50989;DHT22;37008;52.210;21.112;2023-01-16T09:44:59;3.80;99.90
50989;DHT22;37008;52.210;21.112;2023-01-16T09:47:26;3.80;99.90
50989;DHT22;37008;52.210;21.112;2023-01-16T09:49:58;3.80;99.90
50989;DHT22;37008;52.210;21.112;2023-01-16T09:52:29;3.80;99.90
50989;DHT22;37008;52.210;21.112;2023-01-16T09:55:44;3.90;99.90
50989;DHT22;37008;52.210;21.112;2023-01-16T09:58:27;3.90;99.90
50989;DHT22;37008;52.210;21.112;2023-01-16T10:01:13;3.90;99.90
50989;DHT22;37008;52.210;21.112;2023-01-16T10:03:39;4.00;99.90
50989;DHT22;37008;52.210;21.112;2023-01-16T10:06:28;4.00;99.90
50989;DHT22;37008;52.210;21.112;2023-01-16T10:09:20;4.10;99.90
50989;DHT22;37008;52.210;21.112;2023-01-16T10:17:17;4.10;99.90
50989;DHT22;37008;52.210;21.112;2023-01-16T10:21:10;4.10;99.90
50989;DHT22;37008;52.210;21.112;2023-01-16T10:34:08;4.20;99.90
50989;DHT22;37008;52.210;21.112;2023-01-16T10:36:39;4.30;99.90
50989;DHT22;37008;52.210;21.112;2023-01-16T10:39:09;4.40;99.90
50989;DHT22;37008;52.210;21.112;2023-01-16T10:41:40;4.40;99.90
50989;DHT22;37008;52.210;21.112;2023-01-16T10:44:54;4.40;99.90
50989;DHT22;37008;52.210;21.112;2023-01-16T10:47:40;4.50;99.90
50989;DHT22;37008;52.210;21.112;2023-01-16T10:50:25;4.50;99.90
50989;DHT22;37008;52.210;21.112;2023-01-16T10:52:50;4.50;99.90
50989;DHT22;37008;52.210;21.112;2023-01-16T10:55:16;4.50;99.90
50989;DHT22;37008;52.210;21.112;2023-01-16T10:58:00;4.50;99.90
50989;DHT22;37008;52.210;21.112;2023-01-16T11:00:39;4.50;99.90
50989;DHT22;37008;52.210;21.112;2023-01-16T11:06:25;4.50;99.90
50989;DHT22;37008;52.210;21.112;2023-01-16T11:08:54;4.50;99.90
50989;DHT22;37008;52.210;21.112;2023-01-16T11:11:21;4.50;99.90
50989;DHT22;37008;52.210;21.112;2023-01-16T11:14:32;4.60;99.90
50989;DHT22;37008;52.210;21.112;2023-01-16T11:17:25;4.60;99.90
50989;DHT22;37008;52.210;21.112;2023-01-16T11:22:55;4.50;99.90
50989;DHT22;37008;52.210;21.112;2023-01-16T11:25:25;4.60;99.90
50989;DHT22;37008;52.210;21.112;2023-01-16T11:27:52;4.50;99.90
50989;DHT22;37008;52.210;21.112;2023-01-16T11:30:21;4.40;99.90
50989;DHT22;37008;52.210;21.112;2023-01-16T11:32:53;4.40;99.90
50989;DHT22;37008;52.210;21.112;2023-01-16T11:35:19;4.30;99.90
50989;DHT22;37008;52.210;21.112;2023-01-16T11:37:49;4.30;99.90
50989;DHT22;37008;52.210;21.112;2023-01-16T11:40:22;4.30;99.90
50989;DHT22;37008;52.210;21.112;2023-01-16T11:42:57;4.30;99.90
50989;DHT22;37008;52.210;21.112;2023-01-16T11:45:46;4.30;99.90
50989;DHT22;37008;52.210;21.112;2023-01-16T11:48:42;4.20;99.90
50989;DHT22;37008;52.210;21.112;2023-01-16T11:51:13;4.20;99.90
50989;DHT22;37008;52.210;21.112;2023-01-16T11:53:39;4.20;99.90
50989;DHT22;37008;52.210;21.112;2023-01-16T11:56:21;4.20;99.90
50989;DHT22;37008;52.210;21.112;2023-01-16T11:59:14;4.20;99.90
50989;DHT22;37008;52.210;21.112;2023-01-16T12:01:50;4.20;99.90
50989;DHT22;37008;52.210;21.112;2023-01-16T12:04:40;4.20;99.90
50989;DHT22;37008;52.210;21.112;2023-01-16T12:07:45;4.20;99.90
50989;DHT22;37008;52.210;21.112;2023-01-16T12:10:57;4.20;99.90
50989;DHT22;37008;52.210;21.112;2023-01-16T12:13:15;4.20;99.90
50989;DHT22;37008;52.210;21.112;2023-01-16T12:21:54;4.20;99.90
50989;DHT22;37008;52.210;21.112;2023-01-16T12:27:12;4.10;99.90
50989;DHT22;37008;52.210;21.112;2023-01-16T12:29:51;4.10;99.90
50989;DHT22;37008;52.210;21.112;2023-01-16T12:35:33;4.10;99.90
50989;DHT22;37008;52.210;21.112;2023-01-16T12:38:17;4.10;99.90
50989;DHT22;37008;52.210;21.112;2023-01-16T13:00:36;3.80;99.90
50989;DHT22;37008;52.210;21.112;2023-01-16T13:03:26;3.80;99.90
50989;DHT22;37008;52.210;21.112;2023-01-16T13:05:55;3.80;99.90
50989;DHT22;37008;52.210;21.112;2023-01-16T13:08:46;3.70;99.90
50989;DHT22;37008;52.210;21.112;2023-01-16T13:11:24;3.70;99.90
50989;DHT22;37008;52.210;21.112;2023-01-16T13:14:10;3.70;99.90
50989;DHT22;37008;52.210;21.112;2023-01-16T13:16:41;3.70;99.90
50989;DHT22;37008;52.210;21.112;2023-01-16T13:19:14;3.70;99.90
50989;DHT22;37008;52.210;21.112;2023-01-16T13:22:02;3.70;99.90
50989;DHT22;37008;52.210;21.112;2023-01-16T13:24:35;3.80;99.90
50989;DHT22;37008;52.210;21.112;2023-01-16T13:27:09;3.80;99.90
50989;DHT22;37008;52.210;21.112;2023-01-16T13:29:41;3.80;99.90
50989;DHT22;37008;52.210;21.112;2023-01-16T13:34:50;3.90;99.90
50989;DHT22;37008;52.210;21.112;2023-01-16T13:40:22;3.90;99.90
50989;DHT22;37008;52.210;21.112;2023-01-16T13:42:56;3.90;99.90
50989;DHT22;37008;52.210;21.112;2023-01-16T13:45:43;4.00;99.90
50989;DHT22;37008;52.210;21.112;2023-01-16T13:48:27;4.00;99.90
50989;DHT22;37008;52.210;21.112;2023-01-16T13:51:14;4.10;99.90
50989;DHT22;37008;52.210;21.112;2023-01-16T13:53:45;4.20;99.90
50989;DHT22;37008;52.210;21.112;2023-01-16T13:56:19;4.30;99.90
50989;DHT22;37008;52.210;21.112;2023-01-16T13:59:07;4.40;99.90
50989;DHT22;37008;52.210;21.112;2023-01-16T14:07:45;4.60;99.90
50989;DHT22;37008;52.210;21.112;2023-01-16T14:12:41;4.40;99.90
50989;DHT22;37008;52.210;21.112;2023-01-16T14:20:43;4.20;99.90
50989;DHT22;37008;52.210;21.112;2023-01-16T14:23:18;4.10;99.90
50989;DHT22;37008;52.210;21.112;2023-01-16T14:26:05;3.90;99.90
50989;DHT22;37008;52.210;21.112;2023-01-16T14:28:32;3.80;99.90
50989;DHT22;37008;52.210;21.112;2023-01-16T14:31:00;3.80;99.90
50989;DHT22;37008;52.210;21.112;2023-01-16T14:33:27;3.70;99.90
50989;DHT22;37008;52.210;21.112;2023-01-16T14:35:55;3.60;99.90
50989;DHT22;37008;52.210;21.112;2023-01-16T14:38:28;3.60;99.90
50989;DHT22;37008;52.210;21.112;2023-01-16T14:41:02;3.50;99.90
50989;DHT22;37008;52.210;21.112;2023-01-16T14:44:12;3.50;99.90
50989;DHT22;37008;52.210;21.112;2023-01-16T14:50:13;3.20;99.90
50989;DHT22;37008;52.210;21.112;2023-01-16T14:59:03;2.80;99.90
50989;DHT22;37008;52.210;21.112;2023-01-16T15:01:40;2.70;99.90
50989;DHT22;37008;52.210;21.112;2023-01-16T15:04:28;2.50;99.90
50989;DHT22;37008;52.210;21.112;2023-01-16T15:07:00;2.40;99.90
50989;DHT22;37008;52.210;21.112;2023-01-16T15:09:29;2.30;99.90
50989;DHT22;37008;52.210;21.112;2023-01-16T15:12:00;2.30;99.90
50989;DHT22;37008;52.210;21.112;2023-01-16T15:14:26;2.20;99.90
50989;DHT22;37008;52.210;21.112;2023-01-16T15:22:46;2.00;99.90
50989;DHT22;37008;52.210;21.112;2023-01-16T15:25:45;1.90;99.90
50989;DHT22;37008;52.210;21.112;2023-01-16T15:30:39;1.80;99.90
50989;DHT22;37008;52.210;21.112;2023-01-16T15:33:25;1.80;99.90
50989;DHT22;37008;52.210;21.112;2023-01-16T15:36:24;1.70;99.90
50989;DHT22;37008;52.210;21.112;2023-01-16T15:41:21;1.60;99.90
50989;DHT22;37008;52.210;21.112;2023-01-16T15:44:15;1.60;99.90
50989;DHT22;37008;52.210;21.112;2023-01-16T15:50:02;1.50;99.90
50989;DHT22;37008;52.210;21.112;2023-01-16T15:52:33;1.50;99.90
50989;DHT22;37008;52.210;21.112;2023-01-16T15:55:26;1.40;99.90
50989;DHT22;37008;52.210;21.112;2023-01-16T15:57:55;1.30;99.90
50989;DHT22;37008;52.210;21.112;2023-01-16T16:02:59;1.20;99.90
50989;DHT22;37008;52.210;21.112;2023-01-16T16:05:28;1.20;99.90
50989;DHT22;37008;52.210;21.112;2023-01-16T16:07:55;1.10;99.90
50989;DHT22;37008;52.210;21.112;2023-01-16T16:10:21;1.10;99.90
50989;DHT22;37008;52.210;21.112;2023-01-16T16:13:07;1.00;99.90
50989;DHT22;37008;52.210;21.112;2023-01-16T16:15:32;1.00;99.90
50989;DHT22;37008;52.210;21.112;2023-01-16T16:18:19;0.90;99.90
50989;DHT22;37008;52.210;21.112;2023-01-16T16:20:47;0.90;99.90
50989;DHT22;37008;52.210;21.112;2023-01-16T16:23:22;0.90;99.90
50989;DHT22;37008;52.210;21.112;2023-01-16T16:25:57;0.90;99.90
50989;DHT22;37008;52.210;21.112;2023-01-16T16:28:26;1.00;99.90
50989;DHT22;37008;52.210;21.112;2023-01-16T16:33:32;1.20;99.90
50989;DHT22;37008;52.210;21.112;2023-01-16T16:36:02;1.40;99.90
50989;DHT22;37008;52.210;21.112;2023-01-16T16:38:40;1.40;99.90
50989;DHT22;37008;52.210;21.112;2023-01-16T16:44:00;1.80;99.90
50989;DHT22;37008;52.210;21.112;2023-01-16T16:46:39;1.90;99.90
50989;DHT22;37008;52.210;21.112;2023-01-16T16:51:33;2.10;99.90
50989;DHT22;37008;52.210;21.112;2023-01-16T16:54:08;2.20;99.90
50989;DHT22;37008;52.210;21.112;2023-01-16T16:56:37;2.30;99.90
50989;DHT22;37008;52.210;21.112;2023-01-16T16:59:03;2.30;99.90
50989;DHT22;37008;52.210;21.112;2023-01-16T17:01:29;2.40;99.90
50989;DHT22;37008;52.210;21.112;2023-01-16T17:03:58;2.50;99.90
50989;DHT22;37008;52.210;21.112;2023-01-16T17:06:31;2.60;99.90
50989;DHT22;37008;52.210;21.112;2023-01-16T17:08:57;2.60;99.90
50989;DHT22;37008;52.210;21.112;2023-01-16T17:11:23;2.70;99.90
50989;DHT22;37008;52.210;21.112;2023-01-16T17:13:49;2.70;99.90
50989;DHT22;37008;52.210;21.112;2023-01-16T17:16:20;2.80;99.90
50989;DHT22;37008;52.210;21.112;2023-01-16T17:18:47;2.90;99.90
50989;DHT22;37008;52.210;21.112;2023-01-16T17:21:17;2.90;99.90
50989;DHT22;37008;52.210;21.112;2023-01-16T17:23:44;3.00;99.90
50989;DHT22;37008;52.210;21.112;2023-01-16T17:26:11;3.00;99.90
50989;DHT22;37008;52.210;21.112;2023-01-16T17:28:37;3.10;99.90
50989;DHT22;37008;52.210;21.112;2023-01-16T17:31:05;3.10;99.90
50989;DHT22;37008;52.210;21.112;2023-01-16T17:33:32;3.10;99.90
50989;DHT22;37008;52.210;21.112;2023-01-16T17:35:57;3.20;99.90
50989;DHT22;37008;52.210;21.112;2023-01-16T17:38:40;3.20;99.90
50989;DHT22;37008;52.210;21.112;2023-01-16T17:41:06;3.20;99.90
50989;DHT22;37008;52.210;21.112;2023-01-16T17:43:37;3.30;99.90
50989;DHT22;37008;52.210;21.112;2023-01-16T17:46:21;3.30;99.90
50989;DHT22;37008;52.210;21.112;2023-01-16T17:48:49;3.30;99.90
50989;DHT22;37008;52.210;21.112;2023-01-16T17:51:15;3.40;99.90
50989;DHT22;37008;52.210;21.112;2023-01-16T17:53:47;3.40;99.90
50989;DHT22;37008;52.210;21.112;2023-01-16T17:56:12;3.40;99.90
50989;DHT22;37008;52.210;21.112;2023-01-16T17:58:39;3.40;99.90
50989;DHT22;37008;52.210;21.112;2023-01-16T18:01:23;3.40;99.90
50989;DHT22;37008;52.210;21.112;2023-01-16T18:03:54;3.50;99.90
50989;DHT22;37008;52.210;21.112;2023-01-16T18:06:26;3.50;99.90
50989;DHT22;37008;52.210;21.112;2023-01-16T18:08:53;3.50;99.90
50989;DHT22;37008;52.210;21.112;2023-01-16T18:11:19;3.50;99.90
50989;DHT22;37008;52.210;21.112;2023-01-16T18:14:04;3.50;99.90
50989;DHT22;37008;52.210;21.112;2023-01-16T18:16:48;3.60;99.90
50989;DHT22;37008;52.210;21.112;2023-01-16T18:19:33;3.60;99.90
50989;DHT22;37008;52.210;21.112;2023-01-16T18:21:58;3.60;99.90
50989;DHT22;37008;52.210;21.112;2023-01-16T18:24:31;3.60;99.90